sensor_id;sensor_type;location;lat;lon;timestamp;pressure;altitude;pressure_sealevel;temperature;humidity
21863;BME280;11096;51.338;12.524;2023-11-22T00:00:39;100919.41;;;3.64;100.00
21863;BME280;11096;51.338;12.524;2023-11-22T00:03:05;100923.22;;;3.82;100.00
21863;BME280;11096;51.338;12.524;2023-11-22T00:05:30;100919.63;;;3.56;100.00
21863;BME280;11096;51.338;12.524;2023-11-22T00:07:55;100926.53;;;3.85;100.00
21863;BME280;11096;51.338;12.524;2023-11-22T00:10:22;100922.28;;;3.84;100.00
21863;BME280;11096;51.338;12.524;2023-11-22T00:12:48;100921.84;;;3.69;100.00
21863;BME280;11096;51.338;12.524;2023-11-22T00:15:14;100921.94;;;3.65;100.00
21863;BME280;11096;51.338;12.524;2023-11-22T00:17:43;100919.13;;;3.75;100.00
21863;BME280;11096;51.338;12.524;2023-11-22T00:20:09;100925.09;;;3.75;100.00
21863;BME280;11096;51.338;12.524;2023-11-22T00:22:35;100928.13;;;3.58;100.00
21863;BME280;11096;51.338;12.524;2023-11-22T00:25:01;100928.16;;;3.57;100.00
21863;BME280;11096;51.338;12.524;2023-11-22T00:27:30;100925.66;;;3.55;100.00
21863;BME280;11096;51.338;12.524;2023-11-22T00:29:57;100930.94;;;3.49;100.00
21863;BME280;11096;51.338;12.524;2023-11-22T00:32:22;100932.97;;;3.38;100.00
21863;BME280;11096;51.338;12.524;2023-11-22T00:34:48;100930.91;;;3.51;100.00
21863;BME280;11096;51.338;12.524;2023-11-22T00:37:14;100943.44;;;3.63;100.00
21863;BME280;11096;51.338;12.524;2023-11-22T00:39:40;100948.53;;;3.32;100.00
21863;BME280;11096;51.338;12.524;2023-11-22T00:42:07;100943.41;;;3.32;100.00
21863;BME280;11096;51.338;12.524;2023-11-22T00:44:32;100939.88;;;3.36;100.00
21863;BME280;11096;51.338;12.524;2023-11-22T00:46:58;100944.00;;;3.41;100.00
21863;BME280;11096;51.338;12.524;2023-11-22T00:49:24;100952.00;;;3.31;100.00
21863;BME280;11096;51.338;12.524;2023-11-22T00:51:49;100960.53;;;3.31;100.00
21863;BME280;11096;51.338;12.524;2023-11-22T00:54:16;100963.91;;;3.35;100.00
21863;BME280;11096;51.338;12.524;2023-11-22T00:56:41;100975.25;;;3.25;100.00
21863;BME280;11096;51.338;12.524;2023-11-22T00:59:07;100976.06;;;3.27;100.00
21863;BME280;11096;51.338;12.524;2023-11-22T01:01:32;100971.25;;;3.14;100.00
21863;BME280;11096;51.338;12.524;2023-11-22T01:03:57;100973.28;;;3.36;100.00
21863;BME280;11096;51.338;12.524;2023-11-22T01:06:23;100961.88;;;3.46;100.00
21863;BME280;11096;51.338;12.524;2023-11-22T01:08:49;100964.97;;;3.26;100.00
21863;BME280;11096;51.338;12.524;2023-11-22T01:11:15;100975.72;;;3.40;100.00
21863;BME280;11096;51.338;12.524;2023-11-22T01:13:40;100981.63;;;3.44;100.00
21863;BME280;11096;51.338;12.524;2023-11-22T01:16:08;100978.31;;;3.06;100.00
21863;BME280;11096;51.338;12.524;2023-11-22T01:18:33;100981.38;;;3.20;100.00
21863;BME280;11096;51.338;12.524;2023-11-22T01:20:59;100975.47;;;3.17;100.00
21863;BME280;11096;51.338;12.524;2023-11-22T01:23:25;100965.59;;;3.00;100.00
21863;BME280;11096;51.338;12.524;2023-11-22T01:25:50;100969.69;;;3.09;100.00
21863;BME280;11096;51.338;12.524;2023-11-22T01:28:16;100976.84;;;2.96;100.00
21863;BME280;11096;51.338;12.524;2023-11-22T01:30:43;100979.19;;;2.69;100.00
21863;BME280;11096;51.338;12.524;2023-11-22T01:33:11;100975.31;;;2.89;100.00
21863;BME280;11096;51.338;12.524;2023-11-22T01:35:37;100980.19;;;2.62;100.00
21863;BME280;11096;51.338;12.524;2023-11-22T01:38:03;100986.91;;;2.68;100.00
21863;BME280;11096;51.338;12.524;2023-11-22T01:40:32;100994.66;;;2.66;100.00
21863;BME280;11096;51.338;12.524;2023-11-22T01:42:58;100998.88;;;2.67;100.00
21863;BME280;11096;51.338;12.524;2023-11-22T01:45:23;100992.28;;;2.57;100.00
21863;BME280;11096;51.338;12.524;2023-11-22T01:47:50;100993.22;;;2.53;100.00
21863;BME280;11096;51.338;12.524;2023-11-22T01:50:16;100989.25;;;2.40;100.00
21863;BME280;11096;51.338;12.524;2023-11-22T01:52:41;100995.56;;;2.23;100.00
21863;BME280;11096;51.338;12.524;2023-11-22T01:55:09;100990.19;;;2.35;100.00
21863;BME280;11096;51.338;12.524;2023-11-22T01:57:35;101001.66;;;2.19;100.00
21863;BME280;11096;51.338;12.524;2023-11-22T02:00:04;101008.47;;;2.20;100.00
21863;BME280;11096;51.338;12.524;2023-11-22T02:02:33;101007.03;;;2.07;100.00
21863;BME280;11096;51.338;12.524;2023-11-22T02:04:59;101018.28;;;2.00;100.00
21863;BME280;11096;51.338;12.524;2023-11-22T02:07:26;101015.41;;;2.15;100.00
21863;BME280;11096;51.338;12.524;2023-11-22T02:09:52;101015.50;;;2.10;100.00
21863;BME280;11096;51.338;12.524;2023-11-22T02:12:18;101034.16;;;2.17;100.00
21863;BME280;11096;51.338;12.524;2023-11-22T02:14:44;101032.59;;;2.10;100.00
21863;BME280;11096;51.338;12.524;2023-11-22T02:17:10;101040.34;;;2.07;100.00
21863;BME280;11096;51.338;12.524;2023-11-22T02:19:35;101039.69;;;1.97;100.00
21863;BME280;11096;51.338;12.524;2023-11-22T02:22:02;101043.91;;;2.00;100.00
21863;BME280;11096;51.338;12.524;2023-11-22T02:24:27;101037.81;;;2.05;100.00
21863;BME280;11096;51.338;12.524;2023-11-22T02:26:52;101036.38;;;1.92;100.00
21863;BME280;11096;51.338;12.524;2023-11-22T02:29:18;101033.66;;;2.00;100.00
21863;BME280;11096;51.338;12.524;2023-11-22T02:31:44;101034.72;;;1.88;100.00
21863;BME280;11096;51.338;12.524;2023-11-22T02:34:09;101037.97;;;1.96;100.00
21863;BME280;11096;51.338;12.524;2023-11-22T02:36:35;101039.72;;;1.94;100.00
21863;BME280;11096;51.338;12.524;2023-11-22T02:39:00;101046.03;;;1.78;100.00
21863;BME280;11096;51.338;12.524;2023-11-22T02:41:29;101049.13;;;1.93;100.00
21863;BME280;11096;51.338;12.524;2023-11-22T02:43:57;101049.31;;;1.84;100.00
21863;BME280;11096;51.338;12.524;2023-11-22T02:46:22;101056.22;;;1.79;100.00
21863;BME280;11096;51.338;12.524;2023-11-22T02:48:49;101059.84;;;1.69;100.00
21863;BME280;11096;51.338;12.524;2023-11-22T02:51:14;101058.19;;;1.65;100.00
21863;BME280;11096;51.338;12.524;2023-11-22T02:53:40;101072.56;;;1.75;100.00
21863;BME280;11096;51.338;12.524;2023-11-22T02:56:09;101074.25;;;1.75;100.00
21863;BME280;11096;51.338;12.524;2023-11-22T02:58:34;101072.63;;;1.70;100.00
21863;BME280;11096;51.338;12.524;2023-11-22T03:01:00;101076.94;;;1.68;100.00
21863;BME280;11096;51.338;12.524;2023-11-22T03:03:25;101076.03;;;1.71;100.00
21863;BME280;11096;51.338;12.524;2023-11-22T03:05:51;101078.66;;;1.66;100.00
21863;BME280;11096;51.338;12.524;2023-11-22T03:08:16;101071.00;;;1.65;100.00
21863;BME280;11096;51.338;12.524;2023-11-22T03:10:42;101084.81;;;1.58;100.00
21863;BME280;11096;51.338;12.524;2023-11-22T03:13:07;101085.66;;;1.57;100.00
21863;BME280;11096;51.338;12.524;2023-11-22T03:15:34;101089.06;;;1.59;100.00
21863;BME280;11096;51.338;12.524;2023-11-22T03:17:59;101088.22;;;1.57;100.00
21863;BME280;11096;51.338;12.524;2023-11-22T03:20:26;101088.22;;;1.58;100.00
21863;BME280;11096;51.338;12.524;2023-11-22T03:22:52;101090.72;;;1.60;100.00
21863;BME280;11096;51.338;12.524;2023-11-22T03:25:17;101097.72;;;1.52;100.00
21863;BME280;11096;51.338;12.524;2023-11-22T03:27:43;101114.75;;;1.53;100.00
21863;BME280;11096;51.338;12.524;2023-11-22T03:30:10;101119.03;;;1.54;100.00
21863;BME280;11096;51.338;12.524;2023-11-22T03:32:39;101124.03;;;1.61;100.00
21863;BME280;11096;51.338;12.524;2023-11-22T03:35:06;101132.72;;;1.51;100.00
21863;BME280;11096;51.338;12.524;2023-11-22T03:37:32;101141.25;;;1.52;100.00
21863;BME280;11096;51.338;12.524;2023-11-22T03:39:58;101142.91;;;1.56;100.00
21863;BME280;11096;51.338;12.524;2023-11-22T03:42:23;101160.88;;;1.53;100.00
21863;BME280;11096;51.338;12.524;2023-11-22T03:44:49;101163.41;;;1.56;100.00
21863;BME280;11096;51.338;12.524;2023-11-22T03:47:14;101166.09;;;1.48;100.00
21863;BME280;11096;51.338;12.524;2023-11-22T03:49:40;101163.53;;;1.45;100.00
21863;BME280;11096;51.338;12.524;2023-11-22T03:52:06;101159.34;;;1.41;100.00
21863;BME280;11096;51.338;12.524;2023-11-22T03:54:33;101159.38;;;1.39;100.00
21863;BME280;11096;51.338;12.524;2023-11-22T03:56:59;101162.09;;;1.28;100.00
21863;BME280;11096;51.338;12.524;2023-11-22T03:59:24;101152.75;;;1.26;100.00
21863;BME280;11096;51.338;12.524;2023-11-22T04:01:50;101149.91;;;1.44;100.00
21863;BME280;11096;51.338;12.524;2023-11-22T04:04:16;101164.50;;;1.38;100.00
21863;BME280;11096;51.338;12.524;2023-11-22T04:06:41;101171.34;;;1.39;100.00
21863;BME280;11096;51.338;12.524;2023-11-22T04:09:07;101170.50;;;1.35;100.00
21863;BME280;11096;51.338;12.524;2023-11-22T04:11:34;101180.75;;;1.35;100.00
21863;BME280;11096;51.338;12.524;2023-11-22T04:14:00;101184.25;;;1.31;100.00
21863;BME280;11096;51.338;12.524;2023-11-22T04:16:25;101188.59;;;1.26;100.00
21863;BME280;11096;51.338;12.524;2023-11-22T04:18:51;101190.31;;;1.24;100.00
21863;BME280;11096;51.338;12.524;2023-11-22T04:21:16;101192.00;;;1.28;100.00
21863;BME280;11096;51.338;12.524;2023-11-22T04:23:42;101190.38;;;1.21;100.00
21863;BME280;11096;51.338;12.524;2023-11-22T04:26:07;101198.91;;;1.20;100.00
21863;BME280;11096;51.338;12.524;2023-11-22T04:28:33;101199.00;;;1.12;100.00
21863;BME280;11096;51.338;12.524;2023-11-22T04:30:58;101203.25;;;1.15;100.00
21863;BME280;11096;51.338;12.524;2023-11-22T04:33:24;101193.94;;;1.07;100.00
21863;BME280;11096;51.338;12.524;2023-11-22T04:35:50;101199.00;;;1.12;100.00
21863;BME280;11096;51.338;12.524;2023-11-22T04:38:16;101199.84;;;1.14;100.00
21863;BME280;11096;51.338;12.524;2023-11-22T04:40:41;101193.00;;;1.13;100.00
21863;BME280;11096;51.338;12.524;2023-11-22T04:43:08;101196.44;;;1.12;100.00
21863;BME280;11096;51.338;12.524;2023-11-22T04:45:33;101198.19;;;1.10;100.00
21863;BME280;11096;51.338;12.524;2023-11-22T04:47:59;101200.84;;;1.01;100.00
21863;BME280;11096;51.338;12.524;2023-11-22T04:50:25;101217.97;;;0.97;100.00
21863;BME280;11096;51.338;12.524;2023-11-22T04:52:50;101215.34;;;1.02;100.00
21863;BME280;11096;51.338;12.524;2023-11-22T04:55:16;101211.06;;;1.02;100.00
21863;BME280;11096;51.338;12.524;2023-11-22T04:57:41;101231.69;;;0.90;100.00
21863;BME280;11096;51.338;12.524;2023-11-22T05:00:08;101236.72;;;0.98;100.00
21863;BME280;11096;51.338;12.524;2023-11-22T05:02:34;101229.81;;;1.06;100.00
21863;BME280;11096;51.338;12.524;2023-11-22T05:04:59;101234.84;;;1.11;100.00
21863;BME280;11096;51.338;12.524;2023-11-22T05:07:24;101239.09;;;1.15;100.00
21863;BME280;11096;51.338;12.524;2023-11-22T05:09:50;101253.47;;;1.25;100.00
21863;BME280;11096;51.338;12.524;2023-11-22T05:12:15;101256.78;;;1.33;100.00
21863;BME280;11096;51.338;12.524;2023-11-22T05:14:41;101260.78;;;1.53;100.00
21863;BME280;11096;51.338;12.524;2023-11-22T05:17:08;101271.72;;;1.64;100.00
21863;BME280;11096;51.338;12.524;2023-11-22T05:19:34;101267.28;;;1.77;100.00
21863;BME280;11096;51.338;12.524;2023-11-22T05:21:59;101255.34;;;1.76;100.00
21863;BME280;11096;51.338;12.524;2023-11-22T05:24:25;101259.66;;;1.72;100.00
21863;BME280;11096;51.338;12.524;2023-11-22T05:26:51;101266.31;;;1.85;100.00
21863;BME280;11096;51.338;12.524;2023-11-22T05:29:16;101270.56;;;1.86;100.00
21863;BME280;11096;51.338;12.524;2023-11-22T05:31:42;101281.69;;;1.84;100.00
21863;BME280;11096;51.338;12.524;2023-11-22T05:34:07;101280.75;;;1.91;100.00
21863;BME280;11096;51.338;12.524;2023-11-22T05:36:33;101279.72;;;2.03;100.00
21863;BME280;11096;51.338;12.524;2023-11-22T05:38:58;101288.38;;;1.96;100.00
21863;BME280;11096;51.338;12.524;2023-11-22T05:41:25;101294.28;;;2.01;100.00
21863;BME280;11096;51.338;12.524;2023-11-22T05:43:53;101292.53;;;2.03;100.00
21863;BME280;11096;51.338;12.524;2023-11-22T05:46:20;101306.13;;;2.09;100.00
21863;BME280;11096;51.338;12.524;2023-11-22T05:48:52;101307.91;;;2.03;100.00
21863;BME280;11096;51.338;12.524;2023-11-22T05:51:18;101313.22;;;1.92;100.00
21863;BME280;11096;51.338;12.524;2023-11-22T05:53:44;101325.03;;;2.02;100.00
21863;BME280;11096;51.338;12.524;2023-11-22T05:56:10;101326.09;;;1.87;100.00
21863;BME280;11096;51.338;12.524;2023-11-22T05:58:37;101330.22;;;1.96;100.00
21863;BME280;11096;51.338;12.524;2023-11-22T06:01:07;101328.31;;;2.09;100.00
21863;BME280;11096;51.338;12.524;2023-11-22T06:03:34;101329.94;;;2.16;100.00
21863;BME280;11096;51.338;12.524;2023-11-22T06:05:59;101323.31;;;2.03;100.00
21863;BME280;11096;51.338;12.524;2023-11-22T06:08:25;101319.03;;;2.02;100.00
21863;BME280;11096;51.338;12.524;2023-11-22T06:10:51;101336.25;;;1.93;100.00
21863;BME280;11096;51.338;12.524;2023-11-22T06:13:18;101318.28;;;1.95;100.00
21863;BME280;11096;51.338;12.524;2023-11-22T06:15:44;101312.28;;;1.98;100.00
21863;BME280;11096;51.338;12.524;2023-11-22T06:18:10;101318.28;;;1.95;100.00
21863;BME280;11096;51.338;12.524;2023-11-22T06:20:35;101325.03;;;1.99;100.00
21863;BME280;11096;51.338;12.524;2023-11-22T06:23:01;101328.72;;;1.81;100.00
21863;BME280;11096;51.338;12.524;2023-11-22T06:25:26;101327.72;;;1.93;100.00
21863;BME280;11096;51.338;12.524;2023-11-22T06:27:52;101335.56;;;1.82;100.00
21863;BME280;11096;51.338;12.524;2023-11-22T06:30:18;101327.88;;;1.82;100.00
21863;BME280;11096;51.338;12.524;2023-11-22T06:32:43;101327.94;;;1.76;100.00
21863;BME280;11096;51.338;12.524;2023-11-22T06:35:10;101327.78;;;1.87;100.00
21863;BME280;11096;51.338;12.524;2023-11-22T06:37:36;101332.19;;;1.79;100.00
21863;BME280;11096;51.338;12.524;2023-11-22T06:40:02;101331.81;;;1.41;100.00
21863;BME280;11096;51.338;12.524;2023-11-22T06:42:29;101344.81;;;1.24;100.00
21863;BME280;11096;51.338;12.524;2023-11-22T06:44:54;101347.91;;;1.49;100.00
21863;BME280;11096;51.338;12.524;2023-11-22T06:47:23;101351.00;;;1.75;100.00
21863;BME280;11096;51.338;12.524;2023-11-22T06:49:48;101356.59;;;1.39;100.00
21863;BME280;11096;51.338;12.524;2023-11-22T06:52:14;101361.41;;;1.64;100.00
21863;BME280;11096;51.338;12.524;2023-11-22T06:54:39;101374.03;;;1.79;100.00
21863;BME280;11096;51.338;12.524;2023-11-22T06:57:05;101379.00;;;1.91;100.00
21863;BME280;11096;51.338;12.524;2023-11-22T06:59:30;101389.31;;;1.87;100.00
21863;BME280;11096;51.338;12.524;2023-11-22T07:01:56;101386.69;;;1.91;100.00
21863;BME280;11096;51.338;12.524;2023-11-22T07:04:22;101393.59;;;1.86;100.00
21863;BME280;11096;51.338;12.524;2023-11-22T07:06:48;101399.34;;;2.04;100.00
21863;BME280;11096;51.338;12.524;2023-11-22T07:09:14;101399.53;;;1.90;100.00
21863;BME280;11096;51.338;12.524;2023-11-22T07:11:39;101405.50;;;1.89;100.00
21863;BME280;11096;51.338;12.524;2023-11-22T07:14:05;101404.72;;;1.84;100.00
21863;BME280;11096;51.338;12.524;2023-11-22T07:16:31;101401.31;;;1.83;100.00
21863;BME280;11096;51.338;12.524;2023-11-22T07:18:57;101404.69;;;1.87;100.00
21863;BME280;11096;51.338;12.524;2023-11-22T07:21:22;101408.22;;;1.78;100.00
21863;BME280;11096;51.338;12.524;2023-11-22T07:23:48;101399.50;;;1.93;100.00
21863;BME280;11096;51.338;12.524;2023-11-22T07:26:13;101408.75;;;2.02;100.00
21863;BME280;11096;51.338;12.524;2023-11-22T07:28:42;101420.00;;;1.95;100.00
21863;BME280;11096;51.338;12.524;2023-11-22T07:31:08;101425.91;;;2.00;100.00
21863;BME280;11096;51.338;12.524;2023-11-22T07:33:34;101428.47;;;2.00;100.00
21863;BME280;11096;51.338;12.524;2023-11-22T07:36:00;101431.88;;;1.99;100.00
21863;BME280;11096;51.338;12.524;2023-11-22T07:38:25;101433.16;;;1.65;100.00
21863;BME280;11096;51.338;12.524;2023-11-22T07:40:51;101440.75;;;1.73;100.00
21863;BME280;11096;51.338;12.524;2023-11-22T07:43:17;101440.50;;;1.93;100.00
21863;BME280;11096;51.338;12.524;2023-11-22T07:45:43;101433.91;;;1.75;100.00
21863;BME280;11096;51.338;12.524;2023-11-22T07:48:10;101434.78;;;1.73;100.00
21863;BME280;11096;51.338;12.524;2023-11-22T07:50:37;101448.16;;;1.96;100.00
21863;BME280;11096;51.338;12.524;2023-11-22T07:53:04;101454.16;;;1.95;100.00
21863;BME280;11096;51.338;12.524;2023-11-22T07:55:30;101469.56;;;1.93;100.00
21863;BME280;11096;51.338;12.524;2023-11-22T07:57:56;101471.56;;;1.68;100.00
21863;BME280;11096;51.338;12.524;2023-11-22T08:00:22;101479.75;;;1.98;100.00
21863;BME280;11096;51.338;12.524;2023-11-22T08:02:48;101483.41;;;1.79;100.00
21863;BME280;11096;51.338;12.524;2023-11-22T08:05:13;101470.25;;;2.08;99.08
21863;BME280;11096;51.338;12.524;2023-11-22T08:07:41;101464.00;;;2.27;95.86
21863;BME280;11096;51.338;12.524;2023-11-22T08:10:07;101451.13;;;2.29;90.82
21863;BME280;11096;51.338;12.524;2023-11-22T08:12:43;101440.03;;;2.28;87.00
21863;BME280;11096;51.338;12.524;2023-11-22T08:15:10;101427.53;;;2.05;82.70
21863;BME280;11096;51.338;12.524;2023-11-22T08:17:38;101433.38;;;2.15;81.18
21863;BME280;11096;51.338;12.524;2023-11-22T08:20:04;101437.47;;;2.28;79.34
21863;BME280;11096;51.338;12.524;2023-11-22T08:22:33;101439.91;;;2.38;78.33
21863;BME280;11096;51.338;12.524;2023-11-22T08:25:03;101436.56;;;2.32;75.90
21863;BME280;11096;51.338;12.524;2023-11-22T08:27:29;101422.13;;;2.25;74.25
21863;BME280;11096;51.338;12.524;2023-11-22T08:29:54;101420.22;;;2.40;74.27
21863;BME280;11096;51.338;12.524;2023-11-22T08:32:20;101409.84;;;2.49;72.90
21863;BME280;11096;51.338;12.524;2023-11-22T08:34:49;101405.50;;;2.51;72.98
21863;BME280;11096;51.338;12.524;2023-11-22T08:37:15;101392.47;;;2.06;70.90
21863;BME280;11096;51.338;12.524;2023-11-22T08:39:40;101399.44;;;1.98;71.32
21863;BME280;11096;51.338;12.524;2023-11-22T08:42:06;101399.31;;;2.07;71.05
21863;BME280;11096;51.338;12.524;2023-11-22T08:44:35;101406.50;;;1.77;71.12
21863;BME280;11096;51.338;12.524;2023-11-22T08:47:01;101405.63;;;1.81;70.97
21863;BME280;11096;51.338;12.524;2023-11-22T08:49:28;101403.22;;;2.31;71.01
21863;BME280;11096;51.338;12.524;2023-11-22T08:51:53;101398.81;;;2.41;69.85
21863;BME280;11096;51.338;12.524;2023-11-22T08:54:19;101381.03;;;2.28;68.71
21863;BME280;11096;51.338;12.524;2023-11-22T08:56:44;101381.81;;;2.35;68.98
21863;BME280;11096;51.338;12.524;2023-11-22T08:59:12;101391.41;;;2.21;68.81
21863;BME280;11096;51.338;12.524;2023-11-22T09:01:37;101394.13;;;2.67;69.39
21863;BME280;11096;51.338;12.524;2023-11-22T09:04:03;101403.00;;;2.48;68.25
21863;BME280;11096;51.338;12.524;2023-11-22T09:06:28;101407.66;;;2.21;68.79
21863;BME280;11096;51.338;12.524;2023-11-22T09:08:55;101409.06;;;2.44;69.15
21863;BME280;11096;51.338;12.524;2023-11-22T09:11:21;101413.19;;;2.52;69.15
21863;BME280;11096;51.338;12.524;2023-11-22T09:13:48;101412.66;;;2.85;68.51
21863;BME280;11096;51.338;12.524;2023-11-22T09:16:15;101407.59;;;2.80;68.05
21863;BME280;11096;51.338;12.524;2023-11-22T09:18:42;101415.66;;;3.11;67.58
21863;BME280;11096;51.338;12.524;2023-11-22T09:21:08;101422.09;;;3.32;67.49
21863;BME280;11096;51.338;12.524;2023-11-22T09:23:35;101423.19;;;3.67;67.23
21863;BME280;11096;51.338;12.524;2023-11-22T09:26:02;101435.69;;;3.39;66.75
21863;BME280;11096;51.338;12.524;2023-11-22T09:28:27;101442.41;;;3.48;66.55
21863;BME280;11096;51.338;12.524;2023-11-22T09:30:53;101442.84;;;3.70;65.70
21863;BME280;11096;51.338;12.524;2023-11-22T09:33:18;101448.44;;;3.88;66.46
21863;BME280;11096;51.338;12.524;2023-11-22T09:35:46;101451.91;;;3.87;65.68
21863;BME280;11096;51.338;12.524;2023-11-22T09:38:13;101442.41;;;3.46;65.17
21863;BME280;11096;51.338;12.524;2023-11-22T09:40:46;101446.25;;;3.70;65.56
21863;BME280;11096;51.338;12.524;2023-11-22T09:43:13;101439.63;;;3.57;65.54
21863;BME280;11096;51.338;12.524;2023-11-22T09:45:43;101425.63;;;3.73;65.35
21863;BME280;11096;51.338;12.524;2023-11-22T09:48:19;101415.75;;;3.94;65.42
21863;BME280;11096;51.338;12.524;2023-11-22T09:51:05;101416.00;;;3.81;64.74
21863;BME280;11096;51.338;12.524;2023-11-22T09:53:36;101407.28;;;3.88;64.99
21863;BME280;11096;51.338;12.524;2023-11-22T09:56:08;101389.41;;;3.84;65.16
21863;BME280;11096;51.338;12.524;2023-11-22T09:58:35;101402.84;;;3.55;64.39
21863;BME280;11096;51.338;12.524;2023-11-22T10:01:04;101396.56;;;3.70;64.58
21863;BME280;11096;51.338;12.524;2023-11-22T10:03:30;101396.81;;;3.57;64.64
21863;BME280;11096;51.338;12.524;2023-11-22T10:05:57;101406.66;;;3.34;64.92
21863;BME280;11096;51.338;12.524;2023-11-22T10:08:28;101395.75;;;3.68;64.91
21863;BME280;11096;51.338;12.524;2023-11-22T10:10:57;101397.66;;;3.98;64.29
21863;BME280;11096;51.338;12.524;2023-11-22T10:13:23;101391.66;;;4.38;63.15
21863;BME280;11096;51.338;12.524;2023-11-22T10:15:49;101373.75;;;3.53;63.37
21863;BME280;11096;51.338;12.524;2023-11-22T10:18:15;101384.44;;;4.15;62.86
21863;BME280;11096;51.338;12.524;2023-11-22T10:20:43;101391.00;;;4.28;62.71
21863;BME280;11096;51.338;12.524;2023-11-22T10:23:13;101388.03;;;5.14;61.16
21863;BME280;11096;51.338;12.524;2023-11-22T10:25:53;101392.56;;;5.06;61.53
21863;BME280;11096;51.338;12.524;2023-11-22T10:28:19;101405.84;;;4.90;61.42
21863;BME280;11096;51.338;12.524;2023-11-22T10:30:49;101402.19;;;5.32;61.15
21863;BME280;11096;51.338;12.524;2023-11-22T10:33:18;101418.34;;;4.70;61.29
21863;BME280;11096;51.338;12.524;2023-11-22T10:35:49;101424.94;;;4.46;62.50
21863;BME280;11096;51.338;12.524;2023-11-22T10:38:18;101433.69;;;4.74;62.91
21863;BME280;11096;51.338;12.524;2023-11-22T10:40:44;101422.31;;;4.83;61.71
21863;BME280;11096;51.338;12.524;2023-11-22T10:43:14;101423.34;;;4.76;60.61
21863;BME280;11096;51.338;12.524;2023-11-22T10:45:41;101433.09;;;4.63;62.23
21863;BME280;11096;51.338;12.524;2023-11-22T10:48:10;101433.22;;;4.57;62.32
21863;BME280;11096;51.338;12.524;2023-11-22T10:50:36;101443.50;;;4.59;62.13
21863;BME280;11096;51.338;12.524;2023-11-22T10:53:05;101444.13;;;4.68;63.32
21863;BME280;11096;51.338;12.524;2023-11-22T10:55:32;101455.16;;;4.75;62.68
21863;BME280;11096;51.338;12.524;2023-11-22T10:58:02;101460.00;;;4.87;62.18
21863;BME280;11096;51.338;12.524;2023-11-22T11:00:31;101447.19;;;4.47;61.96
21863;BME280;11096;51.338;12.524;2023-11-22T11:03:03;101458.63;;;3.93;63.11
21863;BME280;11096;51.338;12.524;2023-11-22T11:05:31;101453.31;;;4.02;61.66
21863;BME280;11096;51.338;12.524;2023-11-22T11:08:09;101457.88;;;4.30;62.39
21863;BME280;11096;51.338;12.524;2023-11-22T11:10:44;101467.66;;;4.13;63.49
21863;BME280;11096;51.338;12.524;2023-11-22T11:13:13;101478.09;;;4.06;63.25
21863;BME280;11096;51.338;12.524;2023-11-22T11:15:42;101491.13;;;4.39;64.61
21863;BME280;11096;51.338;12.524;2023-11-22T11:18:10;101482.78;;;4.28;63.45
21863;BME280;11096;51.338;12.524;2023-11-22T11:20:55;101471.97;;;4.12;63.57
21863;BME280;11096;51.338;12.524;2023-11-22T11:23:22;101473.97;;;3.98;63.36
21863;BME280;11096;51.338;12.524;2023-11-22T11:25:51;101474.53;;;4.14;62.92
21863;BME280;11096;51.338;12.524;2023-11-22T11:28:17;101476.50;;;3.57;63.44
21863;BME280;11096;51.338;12.524;2023-11-22T11:30:49;101474.88;;;3.95;62.64
21863;BME280;11096;51.338;12.524;2023-11-22T11:33:18;101478.09;;;3.61;62.20
21863;BME280;11096;51.338;12.524;2023-11-22T11:35:47;101494.13;;;3.76;63.19
21863;BME280;11096;51.338;12.524;2023-11-22T11:38:14;101497.31;;;3.88;62.94
21863;BME280;11096;51.338;12.524;2023-11-22T11:40:41;101475.81;;;3.93;62.31
21863;BME280;11096;51.338;12.524;2023-11-22T11:43:07;101462.41;;;4.19;62.70
21863;BME280;11096;51.338;12.524;2023-11-22T11:45:37;101448.81;;;4.14;62.03
21863;BME280;11096;51.338;12.524;2023-11-22T11:48:05;101440.28;;;4.12;64.24
21863;BME280;11096;51.338;12.524;2023-11-22T11:50:30;101443.41;;;4.26;61.88
21863;BME280;11096;51.338;12.524;2023-11-22T11:52:56;101455.91;;;4.41;63.06
21863;BME280;11096;51.338;12.524;2023-11-22T11:55:21;101450.19;;;4.28;63.00
21863;BME280;11096;51.338;12.524;2023-11-22T11:57:47;101452.41;;;4.03;62.32
21863;BME280;11096;51.338;12.524;2023-11-22T12:00:14;101456.78;;;3.58;62.33
21863;BME280;11096;51.338;12.524;2023-11-22T12:02:40;101460.63;;;3.34;62.40
21863;BME280;11096;51.338;12.524;2023-11-22T12:05:06;101454.06;;;3.64;62.72
21863;BME280;11096;51.338;12.524;2023-11-22T12:07:37;101452.66;;;3.91;63.05
21863;BME280;11096;51.338;12.524;2023-11-22T12:10:04;101450.16;;;3.90;63.77
21863;BME280;11096;51.338;12.524;2023-11-22T12:12:32;101441.44;;;3.52;63.01
21863;BME280;11096;51.338;12.524;2023-11-22T12:14:57;101441.34;;;3.58;64.37
21863;BME280;11096;51.338;12.524;2023-11-22T12:17:22;101438.84;;;3.55;63.01
21863;BME280;11096;51.338;12.524;2023-11-22T12:19:48;101432.88;;;3.53;62.24
21863;BME280;11096;51.338;12.524;2023-11-22T12:22:14;101419.53;;;3.77;63.15
21863;BME280;11096;51.338;12.524;2023-11-22T12:24:42;101423.03;;;3.75;64.32
21863;BME280;11096;51.338;12.524;2023-11-22T12:27:11;101417.00;;;3.76;64.23
21863;BME280;11096;51.338;12.524;2023-11-22T12:29:37;101420.00;;;3.96;64.78
21863;BME280;11096;51.338;12.524;2023-11-22T12:32:03;101396.84;;;3.54;63.58
21863;BME280;11096;51.338;12.524;2023-11-22T12:34:29;101383.38;;;3.43;62.67
21863;BME280;11096;51.338;12.524;2023-11-22T12:36:55;101390.25;;;3.41;64.11
21863;BME280;11096;51.338;12.524;2023-11-22T12:39:21;101386.97;;;3.76;64.74